createdAt,value
2017-11-22T00:00:25.793Z,81.30
2017-11-22T00:02:52.784Z,82.10
2017-11-22T00:05:19.016Z,82.00
2017-11-22T00:07:45.240Z,82.00
2017-11-22T00:10:11.757Z,82.30
2017-11-22T00:12:37.964Z,81.30
2017-11-22T00:15:04.179Z,81.40
2017-11-22T00:17:31.166Z,81.70
2017-11-22T00:19:57.407Z,81.70
2017-11-22T00:22:23.605Z,82.50
2017-11-22T00:24:49.838Z,82.80
2017-11-22T00:27:16.032Z,83.20
2017-11-22T00:29:42.994Z,83.10
2017-11-22T00:32:09.976Z,82.90
2017-11-22T00:34:36.196Z,82.90
2017-11-22T00:37:02.444Z,83.30
2017-11-22T00:39:28.638Z,83.00
2017-11-22T00:41:54.900Z,81.70
2017-11-22T00:44:21.085Z,82.30
2017-11-22T00:46:48.034Z,82.40
2017-11-22T00:49:14.292Z,82.40
2017-11-22T00:51:40.492Z,82.10
2017-11-22T00:54:06.716Z,82.40
2017-11-22T00:56:33.651Z,82.60
2017-11-22T00:58:59.840Z,82.60
2017-11-22T01:01:26.048Z,82.60
2017-11-22T01:03:52.226Z,82.60
2017-11-22T01:06:19.146Z,82.40
2017-11-22T01:08:45.376Z,81.40
2017-11-22T01:11:11.608Z,81.50
2017-11-22T01:13:38.529Z,81.30
2017-11-22T01:16:04.787Z,81.40
2017-11-22T01:18:31.040Z,80.90
2017-11-22T01:20:57.991Z,81.10
2017-11-22T01:23:24.994Z,81.20
2017-11-22T01:25:51.261Z,81.20
2017-11-22T01:28:18.250Z,81.20
2017-11-22T01:30:44.480Z,81.20
2017-11-22T01:33:10.716Z,81.70
2017-11-22T01:35:36.985Z,81.50
2017-11-22T01:38:03.969Z,82.40
2017-11-22T01:40:30.272Z,82.30
2017-11-22T01:42:57.274Z,81.10
2017-11-22T01:45:23.525Z,81.10
2017-11-22T01:47:49.769Z,81.00
2017-11-22T01:50:16.703Z,81.80
2017-11-22T01:52:42.953Z,81.80
2017-11-22T01:55:09.204Z,82.20
2017-11-22T01:57:35.446Z,82.20
2017-11-22T02:00:01.664Z,82.30
2017-11-22T02:02:27.930Z,82.50
2017-11-22T02:04:54.861Z,82.40
2017-11-22T02:07:21.120Z,82.40
2017-11-22T02:09:48.088Z,83.20
2017-11-22T02:12:15.084Z,83.50
2017-11-22T02:14:41.327Z,83.50
2017-11-22T02:17:08.325Z,83.30
2017-11-22T02:19:34.597Z,83.30
2017-11-22T02:22:01.604Z,84.20
2017-11-22T02:24:27.833Z,84.30
2017-11-22T02:26:54.062Z,84.30
2017-11-22T02:29:20.308Z,84.80
2017-11-22T02:31:46.550Z,85.00
2017-11-22T02:34:12.839Z,84.40
2017-11-22T02:36:39.125Z,84.80
2017-11-22T02:39:05.720Z,84.50
2017-11-22T02:41:31.999Z,84.60
2017-11-22T02:43:58.981Z,84.20
2017-11-22T02:46:25.580Z,84.20
2017-11-22T02:48:51.802Z,84.80
2017-11-22T02:51:18.808Z,85.30
2017-11-22T02:53:45.037Z,84.50
2017-11-22T02:56:11.302Z,83.80
2017-11-22T02:58:37.560Z,83.90
2017-11-22T03:01:04.545Z,84.20
2017-11-22T03:03:30.772Z,84.20
2017-11-22T03:05:57.031Z,83.50
2017-11-22T03:08:23.988Z,84.40
2017-11-22T03:10:50.183Z,83.60
2017-11-22T03:13:16.425Z,84.20
2017-11-22T03:15:42.584Z,85.10
2017-11-22T03:18:09.519Z,83.30
2017-11-22T03:20:36.474Z,83.60
2017-11-22T03:23:02.712Z,83.70
2017-11-22T03:25:29.704Z,84.30
2017-11-22T03:27:55.920Z,84.30
2017-11-22T03:30:23.022Z,84.40
2017-11-22T03:32:49.230Z,83.60
2017-11-22T03:35:15.421Z,83.20
2017-11-22T03:37:41.671Z,83.60
2017-11-22T03:40:07.912Z,83.70
2017-11-22T03:42:34.150Z,83.80
2017-11-22T03:45:01.143Z,84.20
2017-11-22T03:47:27.340Z,84.20
2017-11-22T03:50:00.539Z,84.00
2017-11-22T03:52:33.630Z,83.40
2017-11-22T03:55:00.638Z,84.80
2017-11-22T03:57:27.618Z,84.70
2017-11-22T03:59:54.557Z,84.00
2017-11-22T04:02:24.597Z,84.00
2017-11-22T04:04:53.388Z,84.20
2017-11-22T04:07:20.279Z,84.30
2017-11-22T04:09:46.553Z,84.30
2017-11-22T04:12:13.529Z,83.90
2017-11-22T04:14:39.768Z,84.60
2017-11-22T04:17:05.991Z,83.80
2017-11-22T04:19:32.207Z,83.10
2017-11-22T04:21:58.431Z,84.00
2017-11-22T04:24:24.677Z,84.10
2017-11-22T04:26:50.893Z,83.10
2017-11-22T04:29:17.048Z,83.80
2017-11-22T04:31:43.304Z,83.90
2017-11-22T04:34:09.521Z,83.80
2017-11-22T04:36:35.746Z,84.60
2017-11-22T04:39:02.805Z,84.20
2017-11-22T04:41:29.037Z,84.30
2017-11-22T04:43:55.213Z,84.60
2017-11-22T04:46:21.499Z,84.20
2017-11-22T04:48:48.500Z,84.90
2017-11-22T04:51:14.737Z,84.90
2017-11-22T04:53:41.040Z,84.80
2017-11-22T04:56:07.269Z,84.50
2017-11-22T04:58:33.559Z,83.90
2017-11-22T05:01:00.565Z,84.80
2017-11-22T05:03:26.839Z,84.70
2017-11-22T05:05:53.779Z,84.80
2017-11-22T05:08:20.013Z,84.80
2017-11-22T05:10:46.252Z,84.90
2017-11-22T05:13:13.204Z,84.90
2017-11-22T05:15:40.160Z,85.50
2017-11-22T05:18:06.402Z,85.50
2017-11-22T05:20:32.610Z,85.10
2017-11-22T05:23:05.630Z,84.90
2017-11-22T05:25:33.105Z,85.20
2017-11-22T05:28:07.731Z,84.30
2017-11-22T05:30:33.957Z,84.50
2017-11-22T05:33:00.163Z,85.10
2017-11-22T05:35:26.390Z,84.90
2017-11-22T05:37:52.635Z,84.40
2017-11-22T05:40:18.794Z,84.80
2017-11-22T05:42:45.041Z,83.60
2017-11-22T05:45:11.248Z,84.20
2017-11-22T05:47:37.447Z,84.10
2017-11-22T05:50:03.657Z,84.70
2017-11-22T05:52:29.878Z,84.80
2017-11-22T05:54:56.065Z,84.40
2017-11-22T05:57:23.076Z,85.50
2017-11-22T05:59:49.321Z,84.80
2017-11-22T06:02:15.567Z,84.70
2017-11-22T06:04:42.566Z,84.30
2017-11-22T06:07:08.797Z,84.30
2017-11-22T06:09:34.990Z,85.20
2017-11-22T06:12:01.960Z,85.10
2017-11-22T06:14:28.140Z,85.10
2017-11-22T06:16:54.336Z,85.10
2017-11-22T06:19:20.549Z,85.40
2017-11-22T06:21:46.755Z,85.10
2017-11-22T06:24:12.927Z,84.40
2017-11-22T06:26:39.128Z,84.70
2017-11-22T06:29:05.316Z,84.30
2017-11-22T06:31:32.277Z,85.30
2017-11-22T06:33:58.524Z,85.30
2017-11-22T06:36:24.741Z,85.30
2017-11-22T06:38:50.990Z,85.30
2017-11-22T06:41:17.510Z,85.50
2017-11-22T06:43:43.737Z,85.20
2017-11-22T06:46:10.007Z,85.60
2017-11-22T06:48:36.237Z,85.30
2017-11-22T06:51:02.437Z,85.90
2017-11-22T06:53:28.664Z,84.70
2017-11-22T06:55:54.928Z,85.30
2017-11-22T06:58:21.128Z,85.60
2017-11-22T07:00:47.368Z,84.40
2017-11-22T07:03:13.667Z,84.50
2017-11-22T07:05:39.907Z,84.50
2017-11-22T07:08:06.158Z,85.40
2017-11-22T07:10:32.364Z,85.00
2017-11-22T07:12:58.590Z,84.80
2017-11-22T07:15:24.777Z,83.60
2017-11-22T07:17:53.556Z,84.50
2017-11-22T07:20:19.731Z,84.00
2017-11-22T07:22:46.059Z,84.20
2017-11-22T07:25:12.319Z,84.40
2017-11-22T07:27:38.528Z,84.30
2017-11-22T07:30:04.771Z,84.20
2017-11-22T07:32:31.445Z,84.70
2017-11-22T07:34:58.381Z,84.80
2017-11-22T07:37:31.449Z,83.90
2017-11-22T07:39:57.638Z,84.00
2017-11-22T07:42:23.873Z,84.00
2017-11-22T07:44:50.080Z,83.10
2017-11-22T07:47:17.977Z,84.10
2017-11-22T07:49:44.167Z,84.10
2017-11-22T07:52:14.050Z,84.50
2017-11-22T07:54:40.304Z,84.50
2017-11-22T07:57:10.162Z,84.00
2017-11-22T07:59:36.417Z,83.90
2017-11-22T08:02:02.700Z,83.70
2017-11-22T08:04:28.927Z,82.60
2017-11-22T08:06:55.176Z,83.70
2017-11-22T08:09:21.529Z,84.20
2017-11-22T08:11:48.508Z,82.90
2017-11-22T08:14:14.740Z,83.00
2017-11-22T08:16:41.723Z,82.50
2017-11-22T08:19:07.952Z,82.50
2017-11-22T08:21:34.201Z,82.10
2017-11-22T08:24:00.402Z,82.90
2017-11-22T08:26:26.633Z,83.00
2017-11-22T08:28:52.891Z,83.00
2017-11-22T08:31:19.068Z,82.50
2017-11-22T08:33:46.065Z,82.90
2017-11-22T08:36:12.320Z,82.80
2017-11-22T08:38:38.521Z,82.80
2017-11-22T08:41:05.699Z,82.00
2017-11-22T08:43:31.985Z,81.70
2017-11-22T08:45:58.275Z,81.40
2017-11-22T08:48:25.249Z,81.50
2017-11-22T08:50:51.444Z,81.50
2017-11-22T08:53:18.352Z,81.70
2017-11-22T08:55:50.834Z,81.70
2017-11-22T08:58:17.047Z,82.40
2017-11-22T09:00:43.301Z,81.40
2017-11-22T09:03:09.633Z,81.40
2017-11-22T09:05:36.657Z,81.40
2017-11-22T09:08:02.860Z,81.30
2017-11-22T09:10:29.023Z,79.70
2017-11-22T09:12:55.267Z,79.40
2017-11-22T09:15:21.465Z,80.30
2017-11-22T09:17:47.652Z,79.60
2017-11-22T09:20:14.636Z,80.90
2017-11-22T09:22:40.847Z,80.90
2017-11-22T09:25:07.064Z,78.90
2017-11-22T09:27:39.385Z,78.70
2017-11-22T09:30:11.632Z,77.70
2017-11-22T09:32:38.618Z,76.40
2017-11-22T09:35:06.793Z,73.80
2017-11-22T09:37:33.724Z,71.80
2017-11-22T09:39:59.964Z,71.60
2017-11-22T09:42:28.790Z,70.10
2017-11-22T09:44:55.027Z,69.30
2017-11-22T09:47:21.233Z,69.00
2017-11-22T09:49:48.175Z,65.60
2017-11-22T09:52:15.103Z,67.20
2017-11-22T09:54:42.059Z,64.20
2017-11-22T09:57:09.051Z,65.50
2017-11-22T09:59:35.309Z,65.40
2017-11-22T10:02:02.278Z,61.90
2017-11-22T10:04:29.279Z,59.80
2017-11-22T10:06:55.492Z,59.90
2017-11-22T10:09:21.708Z,59.60
2017-11-22T10:11:47.959Z,58.60
2017-11-22T10:14:14.176Z,57.30
2017-11-22T10:16:40.429Z,60.30
2017-11-22T10:19:06.696Z,56.60
2017-11-22T10:21:39.656Z,58.20
2017-11-22T10:24:06.548Z,58.10
2017-11-22T10:26:32.880Z,57.50
2017-11-22T10:29:05.234Z,58.70
2017-11-22T10:31:32.228Z,59.40
2017-11-22T10:33:58.497Z,60.10
2017-11-22T10:36:25.509Z,62.20
2017-11-22T10:38:52.475Z,59.60
2017-11-22T10:41:18.753Z,59.60
2017-11-22T10:43:44.953Z,63.70
2017-11-22T10:46:11.990Z,59.20
2017-11-22T10:48:39.028Z,58.90
2017-11-22T10:51:05.269Z,58.90
2017-11-22T10:53:32.281Z,55.40
2017-11-22T10:55:58.556Z,54.70
2017-11-22T10:58:24.823Z,54.50
2017-11-22T11:00:51.116Z,54.40
2017-11-22T11:03:18.028Z,51.40
2017-11-22T11:05:44.305Z,51.40
2017-11-22T11:08:10.572Z,51.00
2017-11-22T11:10:36.812Z,52.90
2017-11-22T11:13:03.041Z,52.00
2017-11-22T11:15:29.243Z,50.20
2017-11-22T11:17:55.410Z,49.30
2017-11-22T11:20:21.592Z,49.60
2017-11-22T11:22:47.831Z,51.20
2017-11-22T11:25:14.079Z,50.30
2017-11-22T11:27:40.277Z,47.00
2017-11-22T11:30:06.493Z,48.80
2017-11-22T11:32:32.771Z,48.30
2017-11-22T11:34:59.001Z,45.90
2017-11-22T11:37:25.267Z,47.90
2017-11-22T11:39:51.545Z,47.00
2017-11-22T11:42:17.736Z,45.10
2017-11-22T11:44:43.992Z,43.50
2017-11-22T11:47:10.219Z,46.90
2017-11-22T11:49:36.444Z,46.00
2017-11-22T11:52:02.731Z,45.70
2017-11-22T11:54:29.768Z,43.70
2017-11-22T11:56:56.760Z,43.70
2017-11-22T11:59:23.021Z,43.60
2017-11-22T12:01:49.298Z,44.40
2017-11-22T12:04:15.568Z,42.40
2017-11-22T12:06:41.820Z,42.40
2017-11-22T12:09:08.054Z,42.20
2017-11-22T12:11:35.013Z,42.30
2017-11-22T12:14:02.013Z,41.80
2017-11-22T12:16:28.267Z,41.70
2017-11-22T12:18:54.474Z,40.80
2017-11-22T12:21:25.677Z,42.60
2017-11-22T12:23:51.852Z,44.20
2017-11-22T12:26:18.102Z,41.60
2017-11-22T12:28:45.093Z,43.00
2017-11-22T12:31:11.310Z,42.90
2017-11-22T12:33:37.513Z,41.00
2017-11-22T12:36:04.478Z,43.30
2017-11-22T12:38:30.685Z,42.70
2017-11-22T12:40:57.663Z,44.40
2017-11-22T12:43:23.856Z,43.70
2017-11-22T12:45:50.826Z,40.30
2017-11-22T12:48:17.043Z,40.10
2017-11-22T12:50:43.966Z,41.30
2017-11-22T12:53:10.192Z,41.20
2017-11-22T12:55:37.212Z,43.20
2017-11-22T12:58:03.423Z,42.50
2017-11-22T13:00:29.649Z,43.10
2017-11-22T13:02:55.905Z,44.10
2017-11-22T13:05:22.128Z,45.20
2017-11-22T13:07:48.347Z,45.50
2017-11-22T13:10:18.640Z,46.30
2017-11-22T13:12:44.921Z,49.10
2017-11-22T13:15:11.162Z,51.70
2017-11-22T13:17:37.483Z,52.20
2017-11-22T13:20:03.799Z,52.60
2017-11-22T13:22:30.005Z,53.40
2017-11-22T13:24:56.216Z,55.20
2017-11-22T13:27:22.483Z,56.40
2017-11-22T13:29:48.699Z,56.00
2017-11-22T13:32:19.868Z,57.00
2017-11-22T13:34:46.128Z,57.40
2017-11-22T13:37:13.088Z,59.40
2017-11-22T13:39:39.392Z,59.40
2017-11-22T13:42:06.402Z,58.00
2017-11-22T13:44:32.618Z,57.90
2017-11-22T13:46:58.868Z,59.60
2017-11-22T13:49:25.105Z,60.30
2017-11-22T13:51:52.337Z,60.30
2017-11-22T13:54:18.576Z,60.50
2017-11-22T13:56:44.808Z,60.00
2017-11-22T13:59:11.057Z,60.30
2017-11-22T14:01:38.096Z,60.50
2017-11-22T14:04:04.332Z,60.60
2017-11-22T14:06:30.604Z,62.30
2017-11-22T14:08:56.885Z,62.40
2017-11-22T14:11:23.159Z,62.20
2017-11-22T14:13:49.378Z,63.30
2017-11-22T14:16:16.401Z,63.20
2017-11-22T14:18:42.608Z,63.20
2017-11-22T14:21:08.872Z,63.70
2017-11-22T14:23:36.012Z,62.80
2017-11-22T14:26:03.015Z,63.60
2017-11-22T14:28:29.232Z,63.60
2017-11-22T14:30:55.484Z,63.40
2017-11-22T14:33:21.727Z,63.90
2017-11-22T14:35:47.937Z,64.40
2017-11-22T14:38:14.213Z,65.20
2017-11-22T14:40:41.288Z,65.30
2017-11-22T14:43:08.153Z,65.30
2017-11-22T14:45:34.412Z,65.40
2017-11-22T14:48:00.674Z,66.20
2017-11-22T14:50:26.922Z,66.40
2017-11-22T14:52:53.151Z,65.50
2017-11-22T14:55:19.385Z,65.50
2017-11-22T14:57:45.635Z,66.50
2017-11-22T15:00:11.930Z,66.30
2017-11-22T15:02:38.210Z,66.00
2017-11-22T15:05:04.433Z,67.20
2017-11-22T15:07:30.704Z,67.60
2017-11-22T15:09:57.676Z,67.50
2017-11-22T15:12:23.983Z,67.50
2017-11-22T15:14:50.222Z,68.00
2017-11-22T15:20:08.496Z,68.70
2017-11-22T15:22:34.705Z,68.70
2017-11-22T15:25:00.891Z,69.10
2017-11-22T15:27:27.932Z,69.00
2017-11-22T15:29:54.936Z,69.50
2017-11-22T15:32:21.156Z,69.50
2017-11-22T15:34:47.389Z,69.70
2017-11-22T15:37:13.634Z,69.50
2017-11-22T15:42:32.747Z,69.90
2017-11-22T15:44:59.021Z,69.90
2017-11-22T15:47:25.278Z,70.40
2017-11-22T15:49:52.190Z,70.60
2017-11-22T15:52:18.476Z,70.60
2017-11-22T15:54:44.719Z,70.90
2017-11-22T15:57:10.905Z,70.90
2017-11-22T15:59:37.913Z,71.20
2017-11-22T16:02:04.039Z,70.90
2017-11-22T16:04:30.186Z,70.90
2017-11-22T16:06:56.490Z,71.10
2017-11-22T16:09:23.863Z,71.40
2017-11-22T16:11:50.318Z,71.20
2017-11-22T16:14:16.585Z,71.60
2017-11-22T16:16:42.827Z,71.60
2017-11-22T16:19:11.031Z,73.10
2017-11-22T16:21:37.542Z,73.70
2017-11-22T16:24:03.740Z,74.10
2017-11-22T16:26:30.651Z,74.10
2017-11-22T16:28:56.884Z,74.00
2017-11-22T16:31:23.064Z,73.70
2017-11-22T16:33:49.236Z,73.70
2017-11-22T16:36:15.497Z,74.20
2017-11-22T16:38:41.765Z,74.10
2017-11-22T16:41:07.931Z,74.00
2017-11-22T16:43:34.915Z,74.10
2017-11-22T16:46:01.242Z,74.00
2017-11-22T16:48:27.478Z,74.20
2017-11-22T16:50:53.690Z,75.00
2017-11-22T16:53:20.633Z,74.80
2017-11-22T16:55:47.005Z,74.80
2017-11-22T16:58:13.151Z,75.50
2017-11-22T17:00:39.362Z,75.10
2017-11-22T17:03:05.597Z,76.10
2017-11-22T17:05:31.860Z,75.20
2017-11-22T17:07:58.845Z,75.40
2017-11-22T17:10:25.098Z,75.30
2017-11-22T17:12:51.307Z,75.30
2017-11-22T17:15:17.565Z,74.90
2017-11-22T17:17:44.520Z,75.00
2017-11-22T17:20:10.751Z,75.00
2017-11-22T17:22:37.819Z,75.60
2017-11-22T17:25:04.756Z,75.40
2017-11-22T17:27:31.716Z,76.00
2017-11-22T17:29:58.611Z,75.80
2017-11-22T17:32:24.788Z,75.70
2017-11-22T17:34:51.704Z,74.60
2017-11-22T17:37:17.940Z,74.60
2017-11-22T17:39:44.890Z,75.10
2017-11-22T17:42:11.906Z,75.40
2017-11-22T17:44:38.113Z,74.90
2017-11-22T17:47:04.274Z,75.60
2017-11-22T17:49:31.178Z,76.10
2017-11-22T17:51:57.340Z,76.20
2017-11-22T17:54:23.572Z,75.20
2017-11-22T17:56:50.663Z,75.00
2017-11-22T17:59:16.885Z,75.00
2017-11-22T18:01:43.066Z,76.20
2017-11-22T18:04:09.266Z,75.40
2017-11-22T18:06:35.731Z,75.40
2017-11-22T18:09:02.077Z,76.50
2017-11-22T18:11:28.386Z,76.00
2017-11-22T18:13:54.603Z,77.30
2017-11-22T18:16:20.821Z,75.60
2017-11-22T18:18:47.109Z,75.70
2017-11-22T18:21:14.058Z,76.40
2017-11-22T18:23:40.307Z,76.30
2017-11-22T18:26:06.522Z,75.30
2017-11-22T18:28:33.406Z,76.80
2017-11-22T18:30:59.587Z,76.70
2017-11-22T18:33:26.630Z,77.40
2017-11-22T18:35:53.514Z,75.70
2017-11-22T18:38:19.814Z,75.70
2017-11-22T18:40:46.022Z,74.70
2017-11-22T18:43:12.986Z,75.90
2017-11-22T18:45:39.926Z,75.50
2017-11-22T18:48:06.872Z,75.10
2017-11-22T18:50:33.822Z,75.60
2017-11-22T18:53:00.729Z,75.90
2017-11-22T18:55:26.939Z,75.70
2017-11-22T18:57:53.156Z,75.30
2017-11-22T19:00:19.371Z,75.30
2017-11-22T19:02:45.565Z,75.20
2017-11-22T19:05:11.802Z,75.40
2017-11-22T19:07:38.754Z,74.80
2017-11-22T19:10:05.727Z,76.00
2017-11-22T19:12:31.886Z,76.00
2017-11-22T19:14:58.108Z,74.60
2017-11-22T19:17:24.301Z,75.60
2017-11-22T19:19:50.480Z,74.60
2017-11-22T19:22:17.493Z,74.50
2017-11-22T19:24:43.666Z,74.60
2017-11-22T19:27:10.701Z,73.80
2017-11-22T19:29:36.914Z,73.80
2017-11-22T19:32:03.099Z,73.90
2017-11-22T19:34:29.269Z,74.40
2017-11-22T19:36:57.227Z,74.20
2017-11-22T19:39:25.172Z,74.40
2017-11-22T19:41:52.893Z,74.40
2017-11-22T19:44:19.816Z,74.00
2017-11-22T19:46:46.053Z,74.10
2017-11-22T19:49:13.416Z,74.80
2017-11-22T19:51:40.383Z,74.40
2017-11-22T19:54:07.367Z,75.00
2017-11-22T19:56:34.611Z,75.00
2017-11-22T19:59:00.817Z,74.10
2017-11-22T20:01:29.916Z,73.80
2017-11-22T20:03:58.478Z,74.70
2017-11-22T20:06:24.728Z,74.60
2017-11-22T20:08:55.843Z,75.20
2017-11-22T20:11:22.456Z,74.20
2017-11-22T20:13:48.699Z,74.00
2017-11-22T20:16:16.016Z,74.00
2017-11-22T20:18:42.200Z,74.30
2017-11-22T20:21:14.092Z,74.50
2017-11-22T20:23:43.189Z,74.30
2017-11-22T20:26:09.498Z,74.40
2017-11-22T20:28:38.670Z,74.30
2017-11-22T20:31:05.880Z,74.30
2017-11-22T20:36:16.247Z,74.10
2017-11-22T20:38:43.241Z,74.20
2017-11-22T20:41:10.356Z,74.40
2017-11-22T20:43:38.168Z,74.60
2017-11-22T20:48:45.012Z,74.30
2017-11-22T20:54:06.471Z,74.50
2017-11-22T20:56:36.299Z,74.50
2017-11-22T20:59:03.498Z,74.90
2017-11-22T21:01:30.428Z,74.90
2017-11-22T21:03:57.323Z,74.60
2017-11-22T21:06:23.510Z,74.60
2017-11-22T21:08:50.861Z,74.70
2017-11-22T21:11:18.533Z,75.00
2017-11-22T21:13:44.781Z,74.90
2017-11-22T21:16:12.057Z,74.50
2017-11-22T21:18:38.304Z,75.00
2017-11-22T21:21:15.329Z,74.80
2017-11-22T21:26:33.034Z,74.80
2017-11-22T21:31:50.042Z,74.30
2017-11-22T21:34:22.729Z,75.20
2017-11-22T21:36:50.635Z,74.50
2017-11-22T21:39:16.837Z,73.90
2017-11-22T21:41:43.772Z,73.90
2017-11-22T21:44:10.718Z,75.30
2017-11-22T21:46:37.977Z,74.50
2017-11-22T21:49:04.838Z,73.90
2017-11-22T21:51:31.818Z,74.80
2017-11-22T21:53:58.803Z,73.90
2017-11-22T21:56:26.017Z,73.90
2017-11-22T21:58:52.177Z,73.60
2017-11-22T22:01:18.333Z,73.90
2017-11-22T22:03:46.691Z,74.40
2017-11-22T22:06:13.645Z,74.20
2017-11-22T22:08:39.827Z,74.20
2017-11-22T22:11:07.627Z,74.10
2017-11-22T22:13:33.859Z,74.80
2017-11-22T22:16:00.106Z,74.60
2017-11-22T22:18:28.355Z,74.60
2017-11-22T22:20:54.505Z,74.60
2017-11-22T22:23:21.477Z,76.50
2017-11-22T22:25:47.693Z,75.70
2017-11-22T22:28:14.663Z,75.00
2017-11-22T22:30:40.855Z,75.00
2017-11-22T22:33:07.776Z,74.60
2017-11-22T22:35:34.023Z,74.50
2017-11-22T22:38:00.973Z,75.40
2017-11-22T22:40:27.909Z,74.70
2017-11-22T22:42:54.125Z,74.60
2017-11-22T22:45:20.248Z,75.00
2017-11-22T22:47:46.433Z,74.60
2017-11-22T22:50:12.547Z,74.80
2017-11-22T22:52:39.489Z,73.50
2017-11-22T22:55:05.666Z,73.60
2017-11-22T22:57:31.841Z,74.30
2017-11-22T22:59:58.823Z,72.90
2017-11-22T23:02:25.017Z,72.90
2017-11-22T23:04:51.228Z,73.20
2017-11-22T23:07:18.151Z,72.50
2017-11-22T23:09:44.403Z,72.50
2017-11-22T23:12:11.394Z,72.10
2017-11-22T23:14:37.662Z,71.90
2017-11-22T23:17:03.882Z,73.60
2017-11-22T23:19:30.849Z,72.30
2017-11-22T23:21:57.779Z,74.10
2017-11-22T23:24:23.922Z,73.40
2017-11-22T23:26:50.875Z,71.80
2017-11-22T23:29:17.031Z,71.80
2017-11-22T23:31:43.171Z,73.50
2017-11-22T23:34:09.375Z,73.60
2017-11-22T23:36:35.584Z,72.70
2017-11-22T23:39:02.579Z,72.50
2017-11-22T23:41:28.781Z,72.50
2017-11-22T23:43:55.045Z,72.80
2017-11-22T23:46:21.300Z,73.20
2017-11-22T23:48:48.211Z,72.90
2017-11-22T23:51:15.240Z,72.60
2017-11-22T23:53:41.471Z,72.50
2017-11-22T23:56:07.693Z,72.50
2017-11-22T23:58:33.964Z,72.90
